Time;durP1;ratioP1;P1;durP2;ratioP2;P2;SDS_P1;SDS_P2;PMS_P1;PMS_P2;Temp;Humidity;BMP_temperature;BMP_pressure;BME280_temperature;BME280_humidity;BME280_pressure;Samples;Min_cycle;Max_cycle;Signal;HPM_P1;HPM_P2
2022/12/29 00:01:00;;;;;;;1.10;0.88;;;;;16.60;99744.00;;;;5056916;28;20199;-76
2022/12/29 00:03:27;;;;;;;1.33;1.15;;;;;16.60;99736.00;;;;5059493;28;20192;-76
2022/12/29 00:05:58;;;;;;;1.38;1.23;;;;;16.60;99733.00;;;;5054793;28;20210;-76
2022/12/29 00:08:39;;;;;;;1.23;1.02;;;;;16.70;99737.00;;;;5049761;28;20188;-76
2022/12/29 00:11:07;;;;;;;2.00;1.13;;;;;16.70;99716.00;;;;5056706;28;20191;-76
2022/12/29 00:16:21;;;;;;;1.58;1.00;;;;;16.70;99718.00;;;;5049230;28;20620;-76
2022/12/29 00:18:48;;;;;;;0.95;0.85;;;;;16.70;99718.00;;;;5056606;28;20199;-76
2022/12/29 00:35:10;;;;;;;0.93;0.88;;;;;16.80;99708.00;;;;5049229;28;20655;-75
2022/12/29 00:45:55;;;;;;;0.75;0.70;;;;;16.80;99688.00;;;;5052826;28;20241;-75
2022/12/29 00:51:05;;;;;;;1.90;0.90;;;;;16.80;99681.00;;;;5049416;28;20195;-75
2022/12/29 00:53:33;;;;;;;1.48;0.85;;;;;16.80;99673.00;;;;5067036;28;20217;-75
2022/12/29 00:56:00;;;;;;;1.08;0.70;;;;;16.80;99675.00;;;;5060698;28;20199;-75
2022/12/29 00:58:29;;;;;;;1.20;0.80;;;;;16.80;99670.00;;;;5059790;28;20195;-75
2022/12/29 01:01:02;;;;;;;1.17;0.60;;;;;16.80;99665.00;;;;5058673;28;20233;-75
2022/12/29 01:03:31;;;;;;;0.93;0.70;;;;;16.90;99653.00;;;;5054631;28;20311;-75
2022/12/29 01:06:01;;;;;;;0.82;0.60;;;;;16.80;99644.00;;;;5049460;28;20649;-75
2022/12/29 01:08:29;;;;;;;1.30;0.82;;;;;16.90;99644.00;;;;5050639;28;20192;-75
2022/12/29 01:10:59;;;;;;;1.38;0.75;;;;;16.80;99644.00;;;;5052017;28;20202;-75
2022/12/29 01:13:26;;;;;;;0.93;0.50;;;;;16.90;99642.00;;;;5048895;28;20286;-76
2022/12/29 01:15:54;;;;;;;1.38;0.73;;;;;16.90;99638.00;;;;5048429;28;20207;-75
2022/12/29 01:18:22;;;;;;;1.58;0.65;;;;;16.80;99642.00;;;;5061908;28;20206;-75
2022/12/29 01:20:51;;;;;;;0.80;0.60;;;;;16.80;99636.00;;;;5053927;28;20199;-75
2022/12/29 01:23:18;;;;;;;1.65;0.80;;;;;16.80;99635.00;;;;5066942;28;20684;-76
2022/12/29 01:25:45;;;;;;;1.25;0.60;;;;;16.80;99639.00;;;;5056700;28;20556;-76
2022/12/29 01:28:13;;;;;;;1.33;0.60;;;;;16.70;99633.00;;;;5052978;28;20194;-76
2022/12/29 01:30:41;;;;;;;0.65;0.55;;;;;16.70;99637.00;;;;5048395;28;20665;-76
2022/12/29 01:33:08;;;;;;;2.95;0.40;;;;;16.70;99633.00;;;;5055365;28;20206;-75
2022/12/29 01:35:35;;;;;;;1.50;0.50;;;;;16.70;99643.00;;;;5050568;28;20195;-75
2022/12/29 01:38:04;;;;;;;0.95;0.38;;;;;16.60;99632.00;;;;5052421;28;20337;-76
2022/12/29 01:40:31;;;;;;;0.68;0.43;;;;;16.60;99630.00;;;;5062842;28;20221;-76
2022/12/29 01:42:59;;;;;;;0.98;0.55;;;;;16.60;99635.00;;;;5050337;28;20247;-76
2022/12/29 01:45:26;;;;;;;0.90;0.65;;;;;16.60;99646.00;;;;5053036;28;20763;-76
2022/12/29 01:47:56;;;;;;;0.95;0.50;;;;;16.50;99638.00;;;;5048457;28;20199;-76
2022/12/29 01:50:29;;;;;;;1.60;0.65;;;;;16.50;99631.00;;;;5051732;28;20195;-75
2022/12/29 01:53:00;;;;;;;4.88;0.85;;;;;16.50;99639.00;;;;5065923;28;20207;-75
2022/12/29 01:55:31;;;;;;;0.75;0.52;;;;;16.40;99641.00;;;;5067369;28;20611;-75
2022/12/29 01:58:03;;;;;;;0.98;0.80;;;;;16.40;99634.00;;;;5069115;28;20567;-75
2022/12/29 02:00:30;;;;;;;0.90;0.52;;;;;16.40;99643.00;;;;5060536;28;20245;-75
2022/12/29 02:02:57;;;;;;;0.82;0.50;;;;;16.40;99641.00;;;;5054084;28;20215;-76
2022/12/29 02:05:28;;;;;;;1.13;0.50;;;;;16.40;99636.00;;;;5048075;28;20195;-76
2022/12/29 02:07:56;;;;;;;2.03;1.05;;;;;16.40;99637.00;;;;5048726;28;20242;-76
2022/12/29 02:10:26;;;;;;;0.70;0.60;;;;;16.30;99644.00;;;;5048336;28;20199;-76
2022/12/29 02:12:55;;;;;;;0.60;0.43;;;;;16.30;99651.00;;;;5066982;28;20199;-76
2022/12/29 02:15:32;;;;;;;0.73;0.50;;;;;16.30;99652.00;;;;5062915;28;20195;-75
2022/12/29 02:18:13;;;;;;;2.15;0.50;;;;;16.20;99645.00;;;;5062559;28;20195;-75
2022/12/29 02:21:16;;;;;;;1.13;0.50;;;;;16.20;99648.00;;;;5047433;28;20192;-75
2022/12/29 02:24:14;;;;;;;0.80;0.40;;;;;16.20;99645.00;;;;5047651;28;20218;-75
2022/12/29 02:27:23;;;;;;;0.50;0.30;;;;;16.20;99644.00;;;;5041958;28;20214;-75
2022/12/29 02:30:10;;;;;;;0.68;0.50;;;;;16.10;99631.00;;;;5051545;28;20208;-75
2022/12/29 02:32:50;;;;;;;2.28;0.60;;;;;16.10;99642.00;;;;5057665;28;20202;-75
2022/12/29 02:35:26;;;;;;;0.73;0.32;;;;;16.10;99636.00;;;;5055760;28;20206;-75
2022/12/29 02:38:01;;;;;;;1.00;0.50;;;;;16.10;99647.00;;;;5052640;28;20206;-76
2022/12/29 02:40:39;;;;;;;1.05;0.55;;;;;16.10;99645.00;;;;5050314;28;20203;-76
2022/12/29 02:43:14;;;;;;;2.72;0.38;;;;;16.20;99644.00;;;;5053824;28;20223;-75
2022/12/29 02:45:52;;;;;;;0.82;0.32;;;;;16.10;99639.00;;;;5052665;28;20195;-76
2022/12/29 02:48:26;;;;;;;1.25;0.20;;;;;16.20;99641.00;;;;5051780;28;20202;-76
2022/12/29 02:51:00;;;;;;;0.40;0.30;;;;;16.20;99634.00;;;;5052784;28;20222;-75
2022/12/29 02:56:14;;;;;;;0.80;0.20;;;;;16.30;99624.00;;;;5046705;28;20578;-75
2022/12/29 02:58:41;;;;;;;0.17;0.10;;;;;16.30;99637.00;;;;5052196;28;20206;-75
2022/12/29 03:01:29;;;;;;;2.17;0.30;;;;;16.20;99641.00;;;;5054896;28;20188;-75
2022/12/29 03:04:13;;;;;;;1.08;0.20;;;;;16.20;99639.00;;;;5053728;28;20313;-75
2022/12/29 03:06:53;;;;;;;0.68;0.57;;;;;16.20;99644.00;;;;5054498;28;20621;-75
2022/12/29 03:09:30;;;;;;;2.85;0.60;;;;;16.30;99642.00;;;;5048033;28;20204;-76
2022/12/29 03:12:11;;;;;;;0.82;0.38;;;;;16.20;99639.00;;;;5057946;28;20206;-75
2022/12/29 03:17:48;;;;;;;2.05;0.47;;;;;16.20;99638.00;;;;5057587;28;20210;-75
2022/12/29 03:20:22;;;;;;;0.90;0.50;;;;;16.20;99640.00;;;;5059873;28;20229;-75
2022/12/29 03:22:52;;;;;;;0.63;0.30;;;;;16.20;99644.00;;;;5054687;28;20227;-75
2022/12/29 03:25:24;;;;;;;2.00;0.30;;;;;16.20;99643.00;;;;5062645;28;20195;-75
2022/12/29 03:27:56;;;;;;;0.77;0.45;;;;;16.20;99636.00;;;;5060627;28;20241;-76
2022/12/29 03:30:25;;;;;;;0.90;0.47;;;;;16.20;99636.00;;;;5059199;28;20210;-75
2022/12/29 03:32:55;;;;;;;0.77;0.30;;;;;16.20;99628.00;;;;5061340;28;20187;-75
2022/12/29 03:35:28;;;;;;;2.40;0.45;;;;;16.20;99614.00;;;;5056379;28;20199;-75
2022/12/29 03:38:00;;;;;;;0.88;0.22;;;;;16.10;99619.00;;;;5049955;28;20254;-75
2022/12/29 03:40:29;;;;;;;1.45;0.40;;;;;16.10;99619.00;;;;5048209;28;20187;-75
2022/12/29 03:42:57;;;;;;;1.77;0.30;;;;;16.10;99609.00;;;;5057380;28;20227;-75
2022/12/29 03:45:24;;;;;;;2.15;0.68;;;;;16.10;99601.00;;;;5058547;28;21193;-75
2022/12/29 03:47:53;;;;;;;1.95;0.30;;;;;16.10;99608.00;;;;5064448;28;20204;-75
2022/12/29 03:50:20;;;;;;;1.27;0.50;;;;;16.00;99600.00;;;;5054750;28;20199;-75
2022/12/29 03:52:49;;;;;;;1.60;0.40;;;;;16.00;99612.00;;;;5056493;28;20203;-75
2022/12/29 03:55:16;;;;;;;0.65;0.30;;;;;16.00;99610.00;;;;5055712;28;20672;-75
2022/12/29 03:57:43;;;;;;;1.55;0.60;;;;;16.00;99619.00;;;;5052690;28;20195;-75
2022/12/29 04:00:11;;;;;;;1.75;0.60;;;;;15.90;99613.00;;;;5055976;28;20207;-75
2022/12/29 04:02:39;;;;;;;0.73;0.30;;;;;15.90;99613.00;;;;5061091;28;20218;-75
2022/12/29 04:05:07;;;;;;;0.90;0.50;;;;;15.90;99606.00;;;;5053552;28;20204;-75
2022/12/29 04:07:34;;;;;;;1.58;0.40;;;;;15.90;99603.00;;;;5062162;28;20199;-75
2022/12/29 04:10:03;;;;;;;1.40;0.50;;;;;15.90;99606.00;;;;5049853;28;20206;-75
2022/12/29 04:12:30;;;;;;;2.72;0.75;;;;;15.90;99602.00;;;;5050456;28;20191;-75
2022/12/29 04:14:57;;;;;;;1.77;0.45;;;;;15.90;99599.00;;;;5050286;28;20203;-76
2022/12/29 04:17:24;;;;;;;1.50;0.70;;;;;15.90;99612.00;;;;5050680;28;20198;-75
2022/12/29 04:20:59;;;;;;;0.57;0.40;;;;;15.90;99611.00;;;;5058782;28;20198;-76
2022/12/29 04:22:39;;;;;;;1.40;0.40;;;;;15.80;99616.00;;;;5058322;28;20237;-75
2022/12/29 04:25:08;;;;;;;2.65;0.55;;;;;15.80;99620.00;;;;5062543;28;20219;-75
2022/12/29 04:27:36;;;;;;;1.80;0.50;;;;;15.80;99632.00;;;;5059867;28;20203;-75
2022/12/29 04:30:04;;;;;;;3.58;0.57;;;;;15.80;99635.00;;;;5058970;28;20210;-75
2022/12/29 04:32:31;;;;;;;4.35;0.40;;;;;15.80;99630.00;;;;5063710;28;20204;-75
2022/12/29 04:34:58;;;;;;;4.50;0.60;;;;;15.80;99638.00;;;;5063900;28;20202;-75
2022/12/29 04:37:25;;;;;;;2.78;0.70;;;;;15.70;99637.00;;;;5063930;28;20198;-76
2022/12/29 04:39:52;;;;;;;1.65;0.32;;;;;15.70;99646.00;;;;5067515;28;20199;-75
2022/12/29 04:42:21;;;;;;;2.72;0.60;;;;;15.70;99620.00;;;;5050804;28;20195;-75
2022/12/29 04:44:48;;;;;;;4.10;1.23;;;;;15.70;99656.00;;;;5054016;28;20235;-74
2022/12/29 04:47:15;;;;;;;6.13;0.65;;;;;15.70;99654.00;;;;5059380;28;20331;-75
2022/12/29 04:49:43;;;;;;;4.60;0.68;;;;;15.70;99649.00;;;;5054192;28;20218;-76
2022/12/29 04:52:10;;;;;;;2.05;0.50;;;;;15.70;99652.00;;;;5054794;28;20194;-75
2022/12/29 04:54:37;;;;;;;6.00;0.77;;;;;15.70;99663.00;;;;5060040;28;20199;-75
2022/12/29 04:57:04;;;;;;;4.28;1.08;;;;;15.70;99657.00;;;;5051069;28;20188;-75
2022/12/29 04:59:33;;;;;;;2.03;0.52;;;;;15.70;99676.00;;;;5050516;28;20215;-75
2022/12/29 05:02:00;;;;;;;3.65;0.65;;;;;15.70;99664.00;;;;5048661;28;20195;-75
2022/12/29 05:04:28;;;;;;;1.02;0.50;;;;;15.70;99676.00;;;;5047692;28;20215;-75
2022/12/29 05:06:55;;;;;;;2.53;0.60;;;;;15.70;99672.00;;;;5048427;28;20202;-75
2022/12/29 05:09:23;;;;;;;1.05;0.40;;;;;15.70;99670.00;;;;5052305;28;20653;-75
2022/12/29 05:11:50;;;;;;;4.63;0.50;;;;;15.70;99684.00;;;;5060252;28;20199;-75
2022/12/29 05:14:18;;;;;;;5.50;0.73;;;;;15.70;99686.00;;;;5055501;28;20206;-75
2022/12/29 05:16:46;;;;;;;4.13;1.05;;;;;15.70;99680.00;;;;5062694;28;20202;-75
2022/12/29 05:19:13;;;;;;;4.35;0.80;;;;;15.70;99672.00;;;;5060925;28;20206;-75
2022/12/29 05:21:41;;;;;;;3.35;0.60;;;;;15.70;99686.00;;;;5051587;28;20206;-75
2022/12/29 05:24:08;;;;;;;4.55;0.63;;;;;15.70;99686.00;;;;5048882;28;20226;-75
2022/12/29 05:26:36;;;;;;;4.40;0.50;;;;;15.70;99691.00;;;;5057357;28;20195;-75
2022/12/29 05:29:03;;;;;;;8.05;1.10;;;;;15.70;99686.00;;;;5053572;28;20204;-75
2022/12/29 05:31:31;;;;;;;4.20;0.65;;;;;15.70;99694.00;;;;5057220;28;20199;-75
2022/12/29 05:33:59;;;;;;;2.80;0.57;;;;;15.70;99680.00;;;;5051636;28;20200;-75
2022/12/29 05:36:26;;;;;;;1.60;0.40;;;;;15.70;99686.00;;;;5047673;28;20200;-75
2022/12/29 05:38:54;;;;;;;1.33;0.45;;;;;15.70;99687.00;;;;5047554;28;20203;-76
2022/12/29 05:41:21;;;;;;;4.28;0.52;;;;;15.70;99665.00;;;;5046230;28;20199;-75
2022/12/29 05:43:48;;;;;;;3.80;0.60;;;;;15.70;99669.00;;;;5046237;28;20339;-75
2022/12/29 05:46:16;;;;;;;4.00;0.70;;;;;15.70;99674.00;;;;5049471;28;20203;-75
2022/12/29 05:48:43;;;;;;;2.50;0.70;;;;;15.70;99674.00;;;;5050574;28;20192;-75
2022/12/29 05:51:12;;;;;;;3.25;0.80;;;;;15.70;99672.00;;;;5046443;28;20191;-75
2022/12/29 05:53:39;;;;;;;1.75;0.55;;;;;15.70;99682.00;;;;5047067;28;20218;-75
2022/12/29 05:56:07;;;;;;;5.60;1.50;;;;;15.70;99671.00;;;;5060580;28;20206;-76
2022/12/29 05:58:34;;;;;;;2.28;0.57;;;;;15.70;99682.00;;;;5051773;28;20620;-75
2022/12/29 06:01:01;;;;;;;5.38;1.02;;;;;15.70;99683.00;;;;5052998;28;20206;-75
2022/12/29 06:03:28;;;;;;;2.00;0.80;;;;;15.70;99705.00;;;;5055233;28;20233;-76
2022/12/29 06:05:56;;;;;;;3.75;0.60;;;;;15.70;99696.00;;;;5050898;28;20210;-75
2022/12/29 06:08:24;;;;;;;2.90;0.50;;;;;15.70;99715.00;;;;5041881;28;20203;-76
2022/12/29 06:10:52;;;;;;;2.90;0.57;;;;;15.80;99702.00;;;;5052136;28;20204;-76
2022/12/29 06:13:19;;;;;;;4.90;0.85;;;;;15.80;99700.00;;;;5045735;28;20215;-75
2022/12/29 06:15:48;;;;;;;4.10;0.57;;;;;15.80;99710.00;;;;5046326;28;20203;-76
2022/12/29 06:18:16;;;;;;;6.18;0.90;;;;;15.80;99698.00;;;;5049558;28;20202;-75
2022/12/29 06:20:43;;;;;;;4.88;0.95;;;;;15.80;99702.00;;;;5046471;28;20267;-76
2022/12/29 06:23:11;;;;;;;4.60;0.73;;;;;15.80;99696.00;;;;5046542;28;20206;-76
2022/12/29 06:25:40;;;;;;;3.92;1.05;;;;;15.80;99707.00;;;;5059135;28;20500;-76
2022/12/29 06:28:07;;;;;;;3.25;0.65;;;;;15.80;99705.00;;;;5048160;28;20662;-75
2022/12/29 06:30:35;;;;;;;3.95;1.20;;;;;15.80;99717.00;;;;5054351;28;20195;-76
2022/12/29 06:33:02;;;;;;;4.30;1.17;;;;;15.80;99737.00;;;;5047246;28;20205;-76
2022/12/29 06:35:29;;;;;;;2.63;0.50;;;;;15.80;99734.00;;;;5043071;28;20198;-75
2022/12/29 06:37:56;;;;;;;3.70;0.73;;;;;15.80;99731.00;;;;5052963;28;20661;-76
2022/12/29 06:40:24;;;;;;;5.25;1.13;;;;;15.80;99751.00;;;;5052150;28;20288;-75
2022/12/29 06:42:52;;;;;;;2.90;0.55;;;;;15.80;99750.00;;;;5046465;28;20188;-76
2022/12/29 06:45:20;;;;;;;2.97;0.50;;;;;15.80;99754.00;;;;5043892;28;20227;-76
2022/12/29 06:47:47;;;;;;;4.43;0.82;;;;;15.70;99744.00;;;;5043863;28;20192;-76
2022/12/29 06:50:14;;;;;;;5.20;0.60;;;;;15.70;99745.00;;;;5048527;28;20191;-75
2022/12/29 06:52:42;;;;;;;6.20;1.08;;;;;15.70;99743.00;;;;5050650;28;20196;-76
2022/12/29 06:55:09;;;;;;;2.00;0.50;;;;;15.70;99735.00;;;;5049578;28;20207;-76
2022/12/29 06:57:36;;;;;;;2.88;0.85;;;;;15.60;99738.00;;;;5047934;28;20668;-75
2022/12/29 07:00:06;;;;;;;3.78;0.40;;;;;15.60;99738.00;;;;5058540;28;20193;-75
2022/12/29 07:02:34;;;;;;;3.53;0.80;;;;;15.60;99753.00;;;;5048616;28;20419;-76
2022/12/29 07:05:01;;;;;;;4.55;0.55;;;;;15.50;99763.00;;;;5054427;28;20318;-76
2022/12/29 07:07:28;;;;;;;3.55;0.70;;;;;15.50;99778.00;;;;5050600;28;20210;-76
2022/12/29 07:09:55;;;;;;;4.10;0.60;;;;;15.50;99787.00;;;;5052491;28;20191;-76
2022/12/29 07:12:22;;;;;;;3.17;0.77;;;;;15.40;99780.00;;;;5047988;28;20199;-76
2022/12/29 07:14:50;;;;;;;3.47;0.60;;;;;15.40;99774.00;;;;5049325;28;20203;-76
2022/12/29 07:17:18;;;;;;;4.82;0.52;;;;;15.30;99753.00;;;;5046284;28;20552;-76
2022/12/29 07:19:45;;;;;;;3.10;0.45;;;;;15.30;99741.00;;;;5048129;28;20207;-77
2022/12/29 07:22:13;;;;;;;1.55;0.38;;;;;15.20;99750.00;;;;5054118;28;20191;-77
2022/12/29 07:24:40;;;;;;;2.95;0.60;;;;;15.20;99760.00;;;;5053046;28;20230;-77
2022/12/29 07:27:07;;;;;;;5.45;0.85;;;;;15.10;99757.00;;;;5058865;28;20191;-77
2022/12/29 07:29:35;;;;;;;0.95;0.30;;;;;15.00;99769.00;;;;5058311;28;20203;-77
2022/12/29 07:32:02;;;;;;;4.03;0.63;;;;;15.00;99778.00;;;;5054398;28;20199;-76
2022/12/29 07:34:31;;;;;;;2.63;0.68;;;;;14.90;99787.00;;;;5052033;28;20202;-76
2022/12/29 07:36:58;;;;;;;4.38;0.55;;;;;14.90;99781.00;;;;5052759;28;20286;-76
2022/12/29 07:39:25;;;;;;;3.78;0.75;;;;;14.80;99782.00;;;;5051760;28;20191;-76
2022/12/29 07:41:55;;;;;;;1.02;0.40;;;;;14.80;99784.00;;;;5062150;28;20200;-77
2022/12/29 07:44:23;;;;;;;2.10;0.73;;;;;14.70;99783.00;;;;5056912;28;20259;-77
2022/12/29 07:46:50;;;;;;;1.67;0.47;;;;;14.70;99776.00;;;;5054093;28;20211;-78
2022/12/29 07:49:17;;;;;;;4.78;0.90;;;;;14.70;99778.00;;;;5052772;28;20196;-78
2022/12/29 07:51:48;;;;;;;5.50;0.60;;;;;14.70;99773.00;;;;5059113;28;20198;-78
2022/12/29 07:54:17;;;;;;;3.63;0.70;;;;;14.70;99785.00;;;;5054276;28;20957;-78
2022/12/29 07:56:48;;;;;;;4.28;0.70;;;;;14.70;99783.00;;;;5053348;28;20282;-77
2022/12/29 07:59:16;;;;;;;6.43;1.30;;;;;14.70;99786.00;;;;5062528;28;20668;-79
2022/12/29 08:01:43;;;;;;;2.45;0.70;;;;;14.70;99794.00;;;;5058825;28;20195;-77
2022/12/29 08:04:13;;;;;;;5.72;0.90;;;;;14.70;99789.00;;;;5049353;28;20266;-77
2022/12/29 08:06:42;;;;;;;2.88;1.00;;;;;14.70;99790.00;;;;5051690;28;20195;-78
2022/12/29 08:09:14;;;;;;;2.67;0.60;;;;;14.80;99780.00;;;;5056964;28;20282;-77
2022/12/29 08:11:42;;;;;;;3.58;0.50;;;;;14.80;99765.00;;;;5048556;28;20677;-77
2022/12/29 08:14:11;;;;;;;2.88;0.52;;;;;14.80;99778.00;;;;5054630;28;20203;-77
2022/12/29 08:16:39;;;;;;;3.75;0.73;;;;;14.80;99786.00;;;;5058880;28;20881;-76
2022/12/29 08:19:07;;;;;;;3.72;0.80;;;;;14.90;99773.00;;;;5057620;28;20245;-77
2022/12/29 08:21:34;;;;;;;2.55;1.13;;;;;14.90;99779.00;;;;5058034;28;20553;-77
2022/12/29 08:24:03;;;;;;;2.95;0.90;;;;;14.90;99781.00;;;;5050385;28;20240;-78
2022/12/29 08:26:33;;;;;;;8.27;1.17;;;;;14.90;99775.00;;;;5054615;28;20196;-78
2022/12/29 08:29:01;;;;;;;3.70;1.05;;;;;15.00;99776.00;;;;5049968;28;20680;-78
2022/12/29 08:31:28;;;;;;;3.85;0.90;;;;;15.00;99778.00;;;;5049779;28;20215;-77
2022/12/29 08:33:56;;;;;;;4.53;0.93;;;;;15.00;99769.00;;;;5054043;28;20299;-77
2022/12/29 08:36:23;;;;;;;3.75;0.80;;;;;15.10;99791.00;;;;5057416;28;20191;-77
2022/12/29 08:38:51;;;;;;;2.35;0.90;;;;;15.10;99775.00;;;;5050556;28;20200;-78
2022/12/29 08:41:19;;;;;;;4.53;0.70;;;;;15.10;99784.00;;;;5050616;28;20688;-77
2022/12/29 08:43:49;;;;;;;4.30;0.70;;;;;15.10;99782.00;;;;5062165;28;20223;-77
2022/12/29 08:46:17;;;;;;;4.25;0.80;;;;;15.10;99791.00;;;;5052307;28;20269;-77
2022/12/29 08:48:45;;;;;;;5.35;0.93;;;;;15.20;99788.00;;;;5055256;28;20716;-78
2022/12/29 08:51:13;;;;;;;3.45;0.68;;;;;15.20;99780.00;;;;5062812;28;20622;-76
2022/12/29 08:53:40;;;;;;;4.25;0.57;;;;;15.20;99788.00;;;;5057382;28;20290;-77
2022/12/29 08:56:09;;;;;;;3.17;0.55;;;;;15.20;99788.00;;;;5064455;28;20744;-77
2022/12/29 08:58:37;;;;;;;8.43;0.63;;;;;15.20;99793.00;;;;5064817;28;20195;-77
2022/12/29 09:01:06;;;;;;;4.88;0.77;;;;;15.20;99793.00;;;;5052628;28;20203;-77
2022/12/29 09:03:34;;;;;;;2.75;0.43;;;;;15.20;99790.00;;;;5054434;28;20207;-77
2022/12/29 09:06:02;;;;;;;4.53;0.77;;;;;15.20;99788.00;;;;5054604;28;20235;-77
2022/12/29 09:08:29;;;;;;;4.43;0.73;;;;;15.20;99799.00;;;;5051485;28;20211;-77
2022/12/29 09:11:09;;;;;;;2.00;0.50;;;;;15.20;99799.00;;;;5051710;28;20214;-77
2022/12/29 09:13:36;;;;;;;3.30;0.98;;;;;15.20;99809.00;;;;5068231;28;20740;-77
2022/12/29 09:16:05;;;;;;;7.38;0.98;;;;;15.20;99807.00;;;;5057244;28;20202;-76
2022/12/29 09:18:35;;;;;;;3.08;0.63;;;;;15.30;99821.00;;;;5050969;28;20198;-77
2022/12/29 09:21:05;;;;;;;3.00;0.70;;;;;15.30;99827.00;;;;5058787;28;20195;-76
2022/12/29 09:23:34;;;;;;;4.28;0.52;;;;;15.30;99818.00;;;;5050597;28;20215;-76
2022/12/29 09:26:01;;;;;;;9.73;0.90;;;;;15.30;99831.00;;;;5070355;28;20226;-78
2022/12/29 09:28:29;;;;;;;4.35;0.57;;;;;15.30;99826.00;;;;5066635;28;20209;-76
2022/12/29 09:30:58;;;;;;;4.53;1.05;;;;;15.30;99846.00;;;;5050026;28;20257;-76
2022/12/29 09:33:28;;;;;;;3.88;0.80;;;;;15.30;99848.00;;;;5060990;28;20209;-76
2022/12/29 09:35:58;;;;;;;2.40;0.60;;;;;15.30;99862.00;;;;5068253;28;20201;-76
2022/12/29 09:38:27;;;;;;;4.70;0.80;;;;;15.40;99852.00;;;;5057796;28;20587;-76
2022/12/29 09:40:57;;;;;;;2.55;0.68;;;;;15.40;99860.00;;;;5062632;28;20206;-77
2022/12/29 09:43:45;;;;;;;5.40;0.95;;;;;15.30;99870.00;;;;5048111;28;20223;-76
2022/12/29 09:46:19;;;;;;;3.58;0.63;;;;;15.30;99879.00;;;;5049362;28;20251;-77
2022/12/29 09:48:53;;;;;;;5.38;0.82;;;;;15.30;99901.00;;;;5047569;28;20195;-78
2022/12/29 09:51:25;;;;;;;6.82;0.98;;;;;15.30;99888.00;;;;5051470;28;20202;-76
2022/12/29 09:53:56;;;;;;;2.35;0.50;;;;;15.30;99897.00;;;;5058142;28;20206;-76
2022/12/29 09:56:26;;;;;;;4.85;1.15;;;;;15.30;99895.00;;;;5066759;28;20572;-77
2022/12/29 09:58:59;;;;;;;4.35;1.08;;;;;15.30;99899.00;;;;5054341;28;20200;-77
2022/12/29 10:01:32;;;;;;;5.63;1.38;;;;;15.30;99893.00;;;;5054982;28;20203;-77
2022/12/29 10:04:04;;;;;;;2.60;0.90;;;;;15.30;99898.00;;;;5047106;28;20231;-76
2022/12/29 10:06:38;;;;;;;5.13;1.05;;;;;15.30;99909.00;;;;5056455;28;20205;-76
2022/12/29 10:09:14;;;;;;;1.95;0.60;;;;;15.30;99909.00;;;;5053966;28;20658;-77
2022/12/29 10:12:02;;;;;;;3.00;1.13;;;;;15.20;99909.00;;;;5052559;28;21058;-77
2022/12/29 10:14:44;;;;;;;3.53;1.17;;;;;15.20;99910.00;;;;5047318;28;20848;-77
2022/12/29 10:17:23;;;;;;;3.08;0.68;;;;;15.20;99904.00;;;;5060693;28;20199;-76
2022/12/29 10:20:05;;;;;;;3.22;1.00;;;;;15.20;99920.00;;;;5048561;28;20217;-77
2022/12/29 10:22:45;;;;;;;2.42;0.73;;;;;15.20;99925.00;;;;5046131;28;20187;-76
2022/12/29 10:25:18;;;;;;;2.33;0.50;;;;;15.20;99928.00;;;;5050120;28;20234;-76
2022/12/29 10:27:49;;;;;;;1.90;0.70;;;;;15.30;99929.00;;;;5049421;28;20214;-76
2022/12/29 10:30:18;;;;;;;2.13;0.55;;;;;15.30;99940.00;;;;5059988;28;20256;-76
2022/12/29 10:32:50;;;;;;;3.20;0.75;;;;;15.30;99943.00;;;;5056889;28;20218;-76
2022/12/29 10:35:21;;;;;;;2.47;0.63;;;;;15.30;99952.00;;;;5050920;28;20192;-76
2022/12/29 10:37:54;;;;;;;4.47;1.15;;;;;15.30;99947.00;;;;5060184;28;20195;-76
2022/12/29 10:40:26;;;;;;;1.90;0.47;;;;;15.30;99952.00;;;;5047656;28;20560;-77
2022/12/29 10:42:56;;;;;;;2.47;0.90;;;;;15.30;99953.00;;;;5050130;28;20231;-77
2022/12/29 10:45:26;;;;;;;4.40;0.90;;;;;15.30;99954.00;;;;5057938;28;20225;-77
2022/12/29 10:48:00;;;;;;;4.45;1.05;;;;;15.30;99978.00;;;;5061288;28;20195;-77
2022/12/29 10:50:29;;;;;;;2.50;0.73;;;;;15.30;99985.00;;;;5055524;28;20187;-76
2022/12/29 10:52:59;;;;;;;1.98;0.90;;;;;15.30;99979.00;;;;5051950;28;20627;-77
2022/12/29 10:55:31;;;;;;;3.95;1.13;;;;;15.30;99978.00;;;;5047405;28;20195;-76
2022/12/29 10:58:04;;;;;;;3.72;0.98;;;;;15.30;99986.00;;;;5053730;28;20187;-77
2022/12/29 11:00:32;;;;;;;2.50;1.40;;;;;15.30;99995.00;;;;5045561;28;20274;-76
2022/12/29 11:03:34;;;;;;;2.38;0.65;;;;;15.20;99994.00;;;;5050556;28;20203;-77
2022/12/29 11:06:09;;;;;;;7.60;2.10;;;;;15.30;100006.00;;;;5050140;28;20225;-78
2022/12/29 11:08:41;;;;;;;5.43;2.03;;;;;15.30;100014.00;;;;5047588;28;20199;-77
2022/12/29 11:11:10;;;;;;;3.45;1.55;;;;;15.30;100015.00;;;;5057125;28;20195;-76
2022/12/29 11:13:50;;;;;;;5.00;1.58;;;;;15.20;100020.00;;;;5055615;28;20214;-77
2022/12/29 11:16:30;;;;;;;6.68;1.67;;;;;15.30;100018.00;;;;5049167;28;20195;-75
2022/12/29 11:18:58;;;;;;;6.70;2.03;;;;;15.40;100041.00;;;;5049239;28;20230;-76
2022/12/29 11:21:32;;;;;;;10.95;1.67;;;;;15.30;100037.00;;;;5047230;28;20211;-76
2022/12/29 11:24:01;;;;;;;6.03;1.73;;;;;15.40;100030.00;;;;5061416;28;20222;-76
2022/12/29 11:26:29;;;;;;;3.83;1.20;;;;;15.40;100040.00;;;;5060967;28;20218;-77
2022/12/29 11:29:18;;;;;;;7.72;1.23;;;;;15.20;100052.00;;;;5061019;28;20210;-77
2022/12/29 11:31:46;;;;;;;4.95;1.67;;;;;15.30;100052.00;;;;5055826;28;20203;-77
2022/12/29 11:34:19;;;;;;;6.28;1.30;;;;;15.20;100047.00;;;;5048978;28;20204;-77
2022/12/29 11:36:50;;;;;;;4.95;1.30;;;;;15.30;100054.00;;;;5066889;28;20199;-77
2022/12/29 11:39:37;;;;;;;5.80;1.33;;;;;15.10;100056.00;;;;5059187;28;20204;-77
2022/12/29 11:42:09;;;;;;;3.50;0.80;;;;;15.20;100054.00;;;;5060106;28;20207;-77
2022/12/29 11:44:38;;;;;;;2.90;0.77;;;;;15.20;100055.00;;;;5050817;28;20223;-76
2022/12/29 11:47:08;;;;;;;3.70;1.00;;;;;15.20;100054.00;;;;5054690;28;20202;-77
2022/12/29 11:49:36;;;;;;;5.25;0.90;;;;;15.20;100051.00;;;;5051568;28;20211;-77
2022/12/29 11:52:05;;;;;;;2.22;0.60;;;;;15.20;100067.00;;;;5063801;28;20211;-77
2022/12/29 11:54:36;;;;;;;4.07;0.85;;;;;15.20;100068.00;;;;5050284;28;20188;-77
2022/12/29 11:57:12;;;;;;;2.05;0.60;;;;;15.10;100068.00;;;;5052602;28;20208;-77
2022/12/29 11:59:43;;;;;;;2.75;0.80;;;;;15.20;100070.00;;;;5051497;28;20579;-77
2022/12/29 12:02:42;;;;;;;2.15;0.63;;;;;15.10;100063.00;;;;5068147;28;20902;-77
2022/12/29 12:05:20;;;;;;;6.10;1.10;;;;;15.30;100074.00;;;;5051047;28;20709;-77
2022/12/29 12:07:55;;;;;;;4.45;1.23;;;;;15.40;100081.00;;;;5051501;28;20214;-76
2022/12/29 12:10:28;;;;;;;3.78;1.35;;;;;15.50;100065.00;;;;5050798;28;20668;-77
2022/12/29 12:13:02;;;;;;;8.27;1.45;;;;;15.50;100077.00;;;;5060107;28;20199;-76
2022/12/29 12:15:38;;;;;;;10.98;1.70;;;;;15.60;100086.00;;;;5053353;28;20203;-76
2022/12/29 12:18:10;;;;;;;7.18;1.33;;;;;15.60;100068.00;;;;5054001;28;20286;-77
2022/12/29 12:20:45;;;;;;;8.98;1.20;;;;;15.70;100080.00;;;;5059746;28;20281;-77
2022/12/29 12:23:37;;;;;;;5.72;1.80;;;;;15.70;100077.00;;;;5064580;28;21098;-76
2022/12/29 12:26:13;;;;;;;5.65;1.77;;;;;15.80;100094.00;;;;5056995;28;20727;-76
2022/12/29 12:28:49;;;;;;;7.63;1.88;;;;;15.80;100076.00;;;;5062823;28;20241;-76
2022/12/29 12:31:26;;;;;;;5.30;1.45;;;;;15.80;100080.00;;;;5058130;28;20199;-76
2022/12/29 12:34:01;;;;;;;8.90;1.95;;;;;15.90;100092.00;;;;5049826;28;20210;-77
2022/12/29 12:36:48;;;;;;;3.88;1.30;;;;;15.90;100100.00;;;;5049741;28;20199;-76
2022/12/29 12:39:26;;;;;;;5.43;1.70;;;;;15.90;100103.00;;;;5050713;28;20227;-76
2022/12/29 12:42:05;;;;;;;5.70;1.48;;;;;15.90;100099.00;;;;5049114;28;20748;-76
2022/12/29 12:44:43;;;;;;;5.53;1.92;;;;;15.90;100097.00;;;;5051685;28;20283;-76
2022/12/29 12:47:43;;;;;;;9.90;1.50;;;;;15.80;100103.00;;;;5064096;28;20693;-76
2022/12/29 12:50:27;;;;;;;3.80;0.95;;;;;15.90;100108.00;;;;5057363;28;20195;-76
2022/12/29 12:53:12;;;;;;;9.60;1.73;;;;;15.90;100110.00;;;;5050778;28;20207;-76
2022/12/29 12:55:59;;;;;;;4.80;1.65;;;;;15.80;100106.00;;;;5056657;28;20203;-76
2022/12/29 12:58:36;;;;;;;4.03;1.80;;;;;15.90;100110.00;;;;5053906;28;20210;-76
2022/12/29 13:01:18;;;;;;;9.75;1.88;;;;;15.80;100109.00;;;;5069905;28;20195;-76
2022/12/29 13:04:03;;;;;;;5.32;1.48;;;;;15.80;100120.00;;;;5061065;28;20191;-76
2022/12/29 13:06:42;;;;;;;6.50;1.90;;;;;15.90;100118.00;;;;5048249;28;20226;-75
2022/12/29 13:09:37;;;;;;;7.90;1.60;;;;;15.80;100113.00;;;;5050220;28;20199;-75